Archival Weather

NSFA McMurdo Sound

NSFA McMurdo Sound, Antarctica (NZCM)

Report from: Tuesday, September 19, 2023 1:11 AM UTC
Current time: Wednesday, December 6, 2023 8:46 AM UTC

Current weather – Weather history – Daily summaries
Weather forecast

Temperature-13.6°C (7.5°F)
Wind chill-24.1°C (-11.4°F)
Dew point-17.3°C (0.9°F)
Winds 16 kts (8.2 m/s, 18.4 mph) Vrb
Wind gusts 20 kts (10.3 m/s, 23 mph)
Winds variableWinds variable from East-Northeast (70°) to Southeast (140°)
Visibility5 mi. (8 km)
Clouds Few clouds 500 ft. (152 m)
Ceiling: Overcast 8,000 ft. (2,438 m)
Altimeter28.96 in.Hg (981 mB)
Relative humidity74 %
Density altitude-5,871 ft. (-1,789 m)
Sea-level pressure108.1 kPa (1081 mB, 31.93 in.Hg)
Remarks Fully automated report
Special weather observation
Automated weather observing station with precipitation discriminator
Flight conditions Marginal Visual Meteorological Conditions
Raw dataSPECI NZCM 190111Z AUTO 10016G20KT 070V140 8000 FEW005 OVC080 M14/M17 A2896 RMK AO2 WSHFT 0107 SLP813 T11361173
An error has occurred. This application may no longer respond until reloaded. Reload 🗙